createdAt,value
2019-03-27T00:00:50.499Z,20.40
2019-03-27T00:01:50.423Z,18.80
2019-03-27T00:02:50.364Z,17.80
2019-03-27T00:03:50.309Z,17.90
2019-03-27T00:04:50.255Z,18.80
2019-03-27T00:05:50.239Z,18.60
2019-03-27T00:06:50.143Z,18.30
2019-03-27T00:13:57.051Z,18.90
2019-03-27T00:14:56.988Z,19.10
2019-03-27T00:15:56.958Z,19.60
2019-03-27T00:16:56.879Z,19.50
2019-03-27T00:17:56.821Z,19.50
2019-03-27T00:18:56.767Z,18.90
2019-03-27T00:19:56.715Z,19.10
2019-03-27T00:20:56.679Z,19.60
2019-03-27T00:21:56.595Z,20.10
2019-03-27T00:22:56.532Z,19.20
2019-03-27T00:23:56.487Z,20.00
2019-03-27T00:24:56.426Z,19.10
2019-03-27T00:25:56.400Z,19.10
2019-03-27T00:26:56.319Z,19.70
2019-03-27T00:27:56.263Z,19.10
2019-03-27T00:28:56.204Z,20.20
2019-03-27T00:29:56.153Z,19.70
2019-03-27T00:30:56.117Z,19.20
2019-03-27T00:31:56.038Z,19.60
2019-03-27T00:32:55.982Z,18.10
2019-03-27T00:33:55.930Z,17.30
2019-03-27T00:34:55.871Z,17.20
2019-03-27T00:35:55.856Z,18.30
2019-03-27T00:36:55.763Z,19.50
2019-03-27T00:37:55.710Z,19.00
2019-03-27T00:38:55.646Z,20.10
2019-03-27T00:39:55.591Z,18.30
2019-03-27T00:40:55.535Z,18.60
2019-03-27T00:41:55.504Z,19.60
2019-03-27T00:42:55.424Z,20.10
2019-03-27T00:43:55.369Z,18.80
2019-03-27T00:44:55.313Z,17.50
2019-03-27T00:45:55.265Z,18.40
2019-03-27T00:46:55.225Z,19.60
2019-03-27T00:47:55.144Z,18.90
2019-03-27T00:48:55.089Z,19.20
2019-03-27T00:49:55.032Z,19.50
2019-03-27T00:50:54.977Z,20.50
2019-03-27T00:51:54.942Z,18.90
2019-03-27T00:52:54.866Z,18.60
2019-03-27T00:53:54.816Z,18.10
2019-03-27T00:54:54.751Z,18.60
2019-03-27T00:55:54.697Z,19.90
2019-03-27T00:56:54.664Z,20.60
2019-03-27T00:57:54.581Z,19.90
2019-03-27T00:58:54.534Z,19.00
2019-03-27T00:59:54.470Z,19.00
2019-03-27T01:00:54.412Z,17.60
2019-03-27T01:01:54.386Z,18.20
2019-03-27T01:02:54.309Z,18.20
2019-03-27T01:03:54.250Z,16.90
2019-03-27T01:05:02.086Z,16.80
2019-03-27T01:05:54.141Z,17.60
2019-03-27T01:06:54.102Z,17.70
2019-03-27T01:07:54.024Z,18.30
2019-03-27T01:08:53.968Z,17.50
2019-03-27T01:09:53.913Z,17.60
2019-03-27T01:10:53.858Z,18.10
2019-03-27T01:11:53.829Z,18.00
2019-03-27T01:12:53.742Z,17.40
2019-03-27T01:13:53.686Z,17.60
2019-03-27T01:14:53.632Z,17.90
2019-03-27T01:15:53.578Z,18.00
2019-03-27T01:16:53.541Z,18.00
2019-03-27T01:17:53.467Z,18.20
2019-03-27T01:18:53.406Z,19.60
2019-03-27T01:19:53.354Z,19.20
2019-03-27T01:20:53.297Z,19.20
2019-03-27T01:21:53.267Z,19.70
2019-03-27T01:22:53.201Z,20.00
2019-03-27T01:23:53.124Z,20.00
2019-03-27T01:24:53.081Z,19.40
2019-03-27T01:25:53.014Z,19.50
2019-03-27T01:26:52.980Z,17.70
2019-03-27T01:27:52.980Z,16.70
2019-03-27T01:28:52.850Z,16.70
2019-03-27T01:29:52.792Z,16.30
2019-03-27T01:30:52.737Z,16.40
2019-03-27T01:31:52.710Z,16.90
2019-03-27T01:32:52.624Z,16.20
2019-03-27T01:33:52.563Z,15.70
2019-03-27T01:34:52.518Z,16.10
2019-03-27T01:35:52.456Z,16.40
2019-03-27T01:36:52.421Z,16.00
2019-03-27T01:37:52.345Z,16.60
2019-03-27T01:38:52.286Z,16.40
2019-03-27T01:39:52.234Z,16.40
2019-03-27T01:40:52.169Z,15.80
2019-03-27T01:41:52.144Z,17.20
2019-03-27T01:42:52.072Z,16.90
2019-03-27T01:43:52.009Z,17.40
2019-03-27T01:44:51.954Z,17.10
2019-03-27T01:45:53.357Z,18.00
2019-03-27T01:46:51.866Z,17.00
2019-03-27T01:47:51.785Z,17.40
2019-03-27T01:48:51.732Z,18.10
2019-03-27T01:49:51.674Z,18.80
2019-03-27T01:50:51.620Z,19.50
2019-03-27T01:51:51.586Z,18.40
2019-03-27T01:52:51.506Z,18.40
2019-03-27T01:53:51.451Z,17.60
2019-03-27T01:54:51.401Z,18.30
2019-03-27T01:55:51.340Z,17.60
2019-03-27T01:56:51.309Z,17.20
2019-03-27T01:57:51.225Z,16.00
2019-03-27T01:58:51.170Z,15.30
2019-03-27T01:59:51.114Z,16.80
2019-03-27T02:00:51.059Z,16.70
2019-03-27T02:01:51.033Z,16.10
2019-03-27T02:02:50.973Z,16.60
2019-03-27T02:03:50.893Z,17.70
2019-03-27T02:04:50.834Z,16.70
2019-03-27T02:05:50.784Z,16.90
2019-03-27T02:06:50.728Z,17.80
2019-03-27T02:07:50.691Z,17.40
2019-03-27T02:08:50.613Z,17.60
2019-03-27T02:09:50.553Z,18.00
2019-03-27T02:10:50.501Z,18.10
2019-03-27T02:11:50.446Z,19.80
2019-03-27T02:12:50.415Z,19.80
2019-03-27T02:13:50.338Z,19.60
2019-03-27T02:14:50.277Z,19.30
2019-03-27T02:15:50.221Z,19.80
2019-03-27T02:16:50.165Z,19.10
2019-03-27T02:17:50.129Z,19.50
2019-03-27T02:18:50.050Z,20.90
2019-03-27T02:19:50.001Z,20.80
2019-03-27T02:20:49.939Z,21.80
2019-03-27T02:21:49.885Z,21.60
2019-03-27T02:22:49.852Z,21.80
2019-03-27T02:23:49.773Z,22.90
2019-03-27T02:24:49.745Z,21.50
2019-03-27T02:25:49.666Z,20.80
2019-03-27T02:26:49.604Z,20.70
2019-03-27T02:27:49.576Z,20.50
2019-03-27T02:28:49.492Z,21.00
2019-03-27T02:29:49.432Z,21.70
2019-03-27T02:30:49.379Z,21.10
2019-03-27T02:31:49.327Z,20.10
2019-03-27T02:32:49.301Z,20.80
2019-03-27T02:33:49.211Z,20.40
2019-03-27T02:34:49.161Z,19.40
2019-03-27T02:35:49.104Z,21.50
2019-03-27T02:36:49.047Z,21.90
2019-03-27T02:37:49.022Z,20.40
2019-03-27T02:38:48.943Z,19.40
2019-03-27T02:39:48.880Z,19.30
2019-03-27T02:40:48.821Z,19.00
2019-03-27T02:41:48.769Z,19.30
2019-03-27T02:42:48.729Z,19.50
2019-03-27T02:43:48.659Z,19.60
2019-03-27T02:44:48.601Z,19.60
2019-03-27T02:45:48.545Z,19.70
2019-03-27T02:46:48.485Z,18.80
2019-03-27T02:47:48.457Z,19.40
2019-03-27T02:48:48.376Z,19.40
2019-03-27T02:49:48.321Z,18.90
2019-03-27T02:50:48.277Z,20.30
2019-03-27T02:51:48.207Z,20.00
2019-03-27T02:52:48.185Z,20.10
2019-03-27T02:53:48.096Z,20.10
2019-03-27T02:54:48.047Z,19.30
2019-03-27T02:55:47.997Z,18.90
2019-03-27T02:56:47.936Z,18.50
2019-03-27T02:57:47.899Z,19.60
2019-03-27T02:58:47.825Z,19.30
2019-03-27T02:59:47.767Z,19.40
2019-03-27T03:00:47.714Z,18.90
2019-03-27T03:01:48.274Z,18.90
2019-03-27T03:02:47.616Z,19.40
2019-03-27T03:03:47.539Z,19.20
2019-03-27T03:04:47.489Z,19.00
2019-03-27T03:05:47.435Z,19.00
2019-03-27T03:06:47.368Z,18.60
2019-03-27T03:07:47.343Z,18.30
2019-03-27T03:08:47.269Z,18.30
2019-03-27T03:09:47.205Z,18.10
2019-03-27T03:10:47.151Z,18.20
2019-03-27T03:11:47.091Z,17.60
2019-03-27T03:12:47.059Z,17.20
2019-03-27T03:13:46.980Z,18.00
2019-03-27T03:14:46.932Z,18.30
2019-03-27T03:15:46.901Z,17.60
2019-03-27T03:16:46.809Z,18.40
2019-03-27T03:17:46.791Z,18.20
2019-03-27T03:18:46.704Z,18.20
2019-03-27T03:19:46.648Z,18.30
2019-03-27T03:20:46.589Z,18.40
2019-03-27T03:21:46.532Z,18.60
2019-03-27T03:22:46.474Z,18.70
2019-03-27T03:23:46.449Z,18.60
2019-03-27T03:24:46.362Z,18.50
2019-03-27T03:25:46.307Z,18.30
2019-03-27T03:26:50.453Z,19.20
2019-03-27T03:27:46.197Z,18.70
2019-03-27T03:28:46.162Z,18.70
2019-03-27T03:29:46.088Z,19.80
2019-03-27T03:30:46.027Z,19.50
2019-03-27T03:31:45.981Z,19.30
2019-03-27T03:32:45.938Z,18.60
2019-03-27T03:33:45.907Z,18.60
2019-03-27T03:34:45.807Z,18.60
2019-03-27T03:35:45.744Z,18.20
2019-03-27T03:36:45.694Z,18.10
2019-03-27T03:37:45.639Z,16.80
2019-03-27T03:38:45.613Z,17.30
2019-03-27T03:39:45.524Z,18.00
2019-03-27T03:40:45.469Z,18.90
2019-03-27T03:41:45.419Z,19.60
2019-03-27T03:42:45.357Z,17.40
2019-03-27T03:43:45.322Z,17.60
2019-03-27T03:44:45.243Z,17.60
2019-03-27T03:45:45.188Z,18.40
2019-03-27T03:46:58.757Z,18.70
2019-03-27T03:47:45.073Z,19.40
2019-03-27T03:48:45.049Z,19.60
2019-03-27T03:49:44.965Z,18.90
2019-03-27T03:50:44.916Z,18.20
2019-03-27T03:51:44.851Z,17.80
2019-03-27T03:52:46.039Z,17.30
2019-03-27T03:53:44.759Z,17.10
2019-03-27T03:54:44.695Z,17.50
2019-03-27T03:55:44.621Z,17.00
2019-03-27T03:56:44.571Z,16.70
2019-03-27T03:57:44.514Z,15.80
2019-03-27T03:58:44.481Z,14.80
2019-03-27T03:59:44.400Z,14.80
2019-03-27T04:00:44.350Z,14.50
2019-03-27T04:01:44.289Z,14.90
2019-03-27T04:02:44.234Z,14.20
2019-03-27T04:03:44.197Z,14.30
2019-03-27T04:04:44.119Z,13.50
2019-03-27T04:05:44.063Z,14.80
2019-03-27T04:06:44.015Z,14.90
2019-03-27T04:07:43.953Z,15.10
2019-03-27T04:08:43.921Z,15.10
2019-03-27T04:09:43.842Z,16.70
2019-03-27T04:10:43.901Z,16.20
2019-03-27T04:11:43.730Z,16.70
2019-03-27T04:12:43.672Z,16.30
2019-03-27T04:13:43.643Z,17.30
2019-03-27T04:14:43.561Z,18.00
2019-03-27T04:15:43.507Z,18.10
2019-03-27T04:16:43.448Z,16.50
2019-03-27T04:17:43.399Z,16.50
2019-03-27T04:18:43.360Z,17.30
2019-03-27T04:19:43.279Z,18.20
2019-03-27T04:20:43.264Z,16.50
2019-03-27T04:21:43.176Z,15.90
2019-03-27T04:22:43.114Z,14.50
2019-03-27T04:23:43.083Z,15.00
2019-03-27T04:24:43.000Z,15.60
2019-03-27T04:26:07.143Z,16.30
2019-03-27T04:26:42.886Z,15.30
2019-03-27T04:27:42.825Z,15.50
2019-03-27T04:28:42.800Z,15.50
2019-03-27T04:29:42.717Z,16.10
2019-03-27T04:30:42.658Z,16.00
2019-03-27T04:31:42.603Z,15.70
2019-03-27T04:32:42.556Z,15.40
2019-03-27T04:33:42.520Z,14.70
2019-03-27T04:34:42.435Z,14.60
2019-03-27T04:35:42.381Z,15.70
2019-03-27T04:36:42.321Z,15.10
2019-03-27T04:37:42.269Z,16.30
2019-03-27T04:38:42.236Z,16.20
2019-03-27T04:39:42.156Z,16.30
2019-03-27T04:40:42.100Z,16.60
2019-03-27T04:41:42.045Z,16.70
2019-03-27T04:42:41.991Z,15.90
2019-03-27T04:43:41.951Z,15.80
2019-03-27T04:44:41.878Z,16.10
2019-03-27T04:45:41.820Z,15.60
2019-03-27T04:46:41.760Z,15.60
2019-03-27T04:47:41.704Z,16.10
2019-03-27T04:48:41.673Z,15.50
2019-03-27T04:49:41.593Z,16.20
2019-03-27T04:50:41.540Z,16.50
2019-03-27T04:51:41.483Z,15.30
2019-03-27T04:52:41.422Z,15.40
2019-03-27T04:53:41.398Z,16.30
2019-03-27T04:54:41.311Z,16.40
2019-03-27T04:55:41.255Z,16.60
2019-03-27T04:56:41.204Z,17.50
2019-03-27T04:57:41.145Z,16.50
2019-03-27T04:58:41.115Z,16.10
2019-03-27T04:59:41.066Z,16.10
2019-03-27T05:00:40.973Z,16.50
2019-03-27T05:01:40.927Z,16.80
2019-03-27T05:02:40.866Z,17.10
2019-03-27T05:03:40.814Z,15.70
2019-03-27T05:04:40.774Z,16.30
2019-03-27T05:05:40.699Z,16.50
2019-03-27T05:06:40.640Z,17.20
2019-03-27T05:07:40.586Z,16.40
2019-03-27T05:08:40.530Z,16.50
2019-03-27T05:09:40.498Z,17.30
2019-03-27T05:10:40.429Z,17.80
2019-03-27T05:11:40.368Z,16.90
2019-03-27T05:12:40.317Z,17.10
2019-03-27T05:13:40.251Z,17.30
2019-03-27T05:14:40.220Z,18.20
2019-03-27T05:15:40.150Z,17.40
2019-03-27T05:16:40.082Z,17.40
2019-03-27T05:17:45.912Z,18.20
2019-03-27T05:18:39.976Z,18.10
2019-03-27T05:19:39.934Z,18.30
2019-03-27T05:20:39.860Z,18.40
2019-03-27T05:21:39.807Z,18.70
2019-03-27T05:22:39.745Z,18.70
2019-03-27T05:23:39.695Z,18.80
2019-03-27T05:24:39.654Z,19.60
2019-03-27T05:25:39.584Z,18.50
2019-03-27T05:26:39.527Z,19.00
2019-03-27T05:27:39.470Z,19.90
2019-03-27T05:28:39.412Z,20.50
2019-03-27T05:29:39.382Z,21.00
2019-03-27T05:30:39.302Z,20.90
2019-03-27T05:31:39.250Z,21.30
2019-03-27T05:32:39.196Z,22.30
2019-03-27T05:33:39.137Z,21.50
2019-03-27T05:34:39.103Z,21.00
2019-03-27T05:35:39.022Z,21.60
2019-03-27T05:36:38.974Z,21.20
2019-03-27T05:37:38.910Z,22.20
2019-03-27T05:38:38.851Z,21.60
2019-03-27T05:39:38.822Z,21.50
2019-03-27T05:40:38.743Z,21.30
2019-03-27T05:41:38.688Z,21.60
2019-03-27T05:42:38.638Z,21.40
2019-03-27T05:43:38.618Z,21.10
2019-03-27T05:44:38.538Z,22.70
2019-03-27T05:45:38.463Z,21.90
2019-03-27T05:46:38.405Z,21.70
2019-03-27T05:47:38.348Z,22.10
2019-03-27T05:48:38.297Z,22.00
2019-03-27T05:49:38.270Z,22.00
2019-03-27T05:50:38.182Z,21.50
2019-03-27T05:51:38.127Z,22.20
2019-03-27T05:52:38.092Z,21.40
2019-03-27T05:53:38.012Z,22.10
2019-03-27T05:54:37.985Z,21.80
2019-03-27T05:55:37.899Z,21.20
2019-03-27T05:56:37.845Z,21.10
2019-03-27T05:57:37.794Z,21.70
2019-03-27T05:58:37.735Z,21.20
2019-03-27T05:59:37.708Z,20.90
2019-03-27T06:00:37.625Z,21.10
2019-03-27T06:01:37.565Z,22.00
2019-03-27T06:02:37.511Z,21.70
2019-03-27T06:03:37.450Z,20.80
2019-03-27T06:04:37.420Z,21.70
2019-03-27T06:05:37.344Z,21.10
2019-03-27T06:06:37.284Z,21.00
2019-03-27T06:07:37.231Z,21.50
2019-03-27T06:08:37.174Z,20.60
2019-03-27T06:09:37.143Z,21.30
2019-03-27T06:10:37.068Z,21.80
2019-03-27T06:11:37.013Z,20.90
2019-03-27T06:12:36.954Z,20.90
2019-03-27T06:13:36.902Z,20.50
2019-03-27T06:14:36.861Z,20.40
2019-03-27T06:15:36.857Z,20.80
2019-03-27T06:16:36.729Z,20.20
2019-03-27T06:17:36.686Z,20.50
2019-03-27T06:18:36.614Z,20.70
2019-03-27T06:19:36.583Z,20.30
2019-03-27T06:20:36.505Z,21.30
2019-03-27T06:21:36.450Z,21.00
2019-03-27T06:22:36.400Z,21.70
2019-03-27T06:23:36.341Z,22.00
2019-03-27T06:24:36.302Z,21.80
2019-03-27T06:25:36.224Z,21.20
2019-03-27T06:26:36.169Z,21.80
2019-03-27T06:27:36.117Z,21.00
2019-03-27T06:28:36.057Z,21.70
2019-03-27T06:29:36.021Z,21.80
2019-03-27T06:30:35.948Z,22.00
2019-03-27T06:31:35.887Z,21.90
2019-03-27T06:32:35.837Z,21.70
2019-03-27T06:33:35.786Z,22.10
2019-03-27T06:34:35.748Z,20.90
2019-03-27T06:35:35.678Z,21.20
2019-03-27T06:36:35.614Z,21.30
2019-03-27T06:37:35.555Z,21.80
2019-03-27T06:38:35.498Z,21.10
2019-03-27T06:39:35.477Z,20.80
2019-03-27T06:40:35.382Z,20.50
2019-03-27T06:41:35.333Z,20.40
2019-03-27T06:42:35.287Z,19.90
2019-03-27T06:43:35.222Z,20.80
2019-03-27T06:44:35.196Z,20.60
2019-03-27T06:45:35.118Z,21.00
2019-03-27T06:46:35.052Z,21.70
2019-03-27T06:47:35.004Z,21.30
2019-03-27T06:48:34.941Z,20.70
2019-03-27T06:49:34.913Z,21.20
2019-03-27T06:50:34.826Z,21.30
2019-03-27T06:51:40.416Z,21.00
2019-03-27T06:52:34.790Z,19.60
2019-03-27T06:53:34.663Z,19.50
2019-03-27T06:54:34.633Z,18.80
2019-03-27T06:55:34.561Z,19.10
2019-03-27T06:56:34.495Z,20.30
2019-03-27T06:57:34.442Z,19.30
2019-03-27T06:58:34.386Z,19.50
2019-03-27T06:59:34.358Z,19.30
2019-03-27T07:00:34.277Z,19.90
2019-03-27T07:01:34.217Z,19.70
2019-03-27T07:02:34.166Z,20.00
2019-03-27T07:03:34.110Z,20.60
2019-03-27T07:04:34.074Z,19.40
2019-03-27T07:05:33.993Z,19.40
2019-03-27T07:06:33.940Z,19.40
2019-03-27T07:07:33.884Z,20.10
2019-03-27T07:08:33.830Z,19.60
2019-03-27T07:09:33.797Z,20.00
2019-03-27T07:10:33.720Z,20.30
2019-03-27T07:11:33.659Z,20.00
2019-03-27T07:12:33.608Z,19.80
2019-03-27T07:13:33.558Z,20.10
2019-03-27T07:14:33.518Z,19.50
2019-03-27T07:15:35.773Z,18.50
2019-03-27T07:16:33.387Z,18.50
2019-03-27T07:17:33.337Z,18.50
2019-03-27T07:18:40.043Z,18.40
2019-03-27T07:19:33.248Z,18.00
2019-03-27T07:20:33.161Z,18.10
2019-03-27T07:21:33.109Z,17.80
2019-03-27T07:22:33.057Z,17.80
2019-03-27T07:23:32.998Z,17.70
2019-03-27T07:24:32.995Z,18.20
2019-03-27T07:25:32.892Z,18.70
2019-03-27T07:26:32.836Z,18.50
2019-03-27T07:27:32.776Z,19.20
2019-03-27T07:28:32.718Z,18.00
2019-03-27T07:29:32.667Z,18.70
2019-03-27T07:30:32.645Z,18.70
2019-03-27T07:31:32.555Z,19.40
2019-03-27T07:32:32.504Z,19.20
2019-03-27T07:33:32.445Z,17.90
2019-03-27T07:34:32.394Z,18.30
2019-03-27T07:35:32.366Z,18.40
2019-03-27T07:36:32.284Z,17.80
2019-03-27T07:37:32.233Z,16.80
2019-03-27T07:38:32.175Z,17.30
2019-03-27T07:39:32.112Z,17.00
2019-03-27T07:40:32.090Z,16.70
2019-03-27T07:41:32.009Z,16.90
2019-03-27T07:42:31.958Z,15.90
2019-03-27T07:43:31.900Z,16.80
2019-03-27T07:44:31.846Z,15.90
2019-03-27T07:45:31.808Z,15.10
2019-03-27T07:46:31.736Z,15.60
2019-03-27T07:47:31.681Z,15.80
2019-03-27T07:48:31.627Z,15.20
2019-03-27T07:49:31.574Z,14.10
2019-03-27T07:50:31.540Z,13.80
2019-03-27T07:51:31.465Z,14.50
2019-03-27T07:52:31.416Z,14.90
2019-03-27T07:53:31.355Z,15.10
2019-03-27T07:54:31.293Z,14.40
2019-03-27T07:55:31.262Z,14.30
2019-03-27T07:56:31.192Z,14.20
2019-03-27T07:57:31.138Z,13.60
2019-03-27T07:58:31.079Z,12.80
2019-03-27T07:59:31.029Z,12.90
2019-03-27T08:00:30.992Z,13.80
2019-03-27T08:01:30.919Z,13.80
2019-03-27T08:02:30.858Z,13.60
2019-03-27T08:03:30.807Z,11.90
2019-03-27T08:04:30.750Z,11.90
2019-03-27T08:05:30.725Z,11.30
2019-03-27T08:06:30.645Z,10.90
2019-03-27T08:07:30.593Z,10.90
2019-03-27T08:08:30.539Z,10.80
2019-03-27T08:09:30.482Z,10.10
2019-03-27T08:10:30.454Z,11.00
2019-03-27T08:11:30.490Z,11.30
2019-03-27T08:12:30.320Z,10.20
2019-03-27T08:13:30.269Z,11.00
2019-03-27T08:14:30.209Z,10.30
2019-03-27T08:15:30.182Z,10.90
2019-03-27T08:16:30.107Z,11.70
2019-03-27T08:17:30.134Z,10.70
2019-03-27T08:18:29.991Z,10.80
2019-03-27T08:19:29.947Z,10.70
2019-03-27T08:20:29.914Z,10.50
2019-03-27T08:21:31.346Z,10.40
2019-03-27T08:22:29.778Z,11.10
2019-03-27T08:23:29.730Z,11.50
2019-03-27T08:24:29.675Z,10.80
2019-03-27T08:25:29.647Z,10.70
2019-03-27T08:26:29.592Z,11.50
2019-03-27T08:27:29.519Z,10.90
2019-03-27T08:28:29.466Z,11.10
2019-03-27T08:29:29.403Z,12.00
2019-03-27T08:30:29.376Z,13.60
2019-03-27T08:31:29.295Z,11.60
2019-03-27T08:32:29.245Z,28.30
2019-03-27T08:33:29.181Z,15.70
2019-03-27T08:34:29.130Z,10.50
2019-03-27T08:35:29.097Z,12.10
2019-03-27T08:36:29.024Z,11.40
2019-03-27T08:37:28.971Z,11.20
2019-03-27T08:38:28.920Z,10.30
2019-03-27T08:39:28.860Z,9.70
2019-03-27T08:40:28.834Z,10.30
2019-03-27T08:41:28.753Z,10.70
2019-03-27T08:42:28.703Z,10.00
2019-03-27T08:43:28.642Z,9.70
2019-03-27T08:44:28.588Z,9.50
2019-03-27T08:45:28.584Z,9.00
2019-03-27T08:46:28.480Z,9.50
2019-03-27T08:47:28.430Z,8.70
2019-03-27T08:48:28.383Z,9.10
2019-03-27T08:49:28.326Z,8.50
2019-03-27T08:50:28.269Z,9.40
2019-03-27T08:51:28.236Z,9.80
2019-03-27T08:52:28.163Z,10.10
2019-03-27T08:53:28.110Z,10.20
2019-03-27T08:54:28.058Z,9.40
2019-03-27T08:55:27.998Z,10.50
2019-03-27T08:56:27.978Z,10.10
2019-03-27T08:57:27.895Z,9.70
2019-03-27T08:58:27.837Z,9.60
2019-03-27T08:59:27.782Z,9.30
2019-03-27T09:00:27.725Z,9.60
2019-03-27T09:01:27.699Z,10.20
2019-03-27T09:02:27.625Z,9.40
2019-03-27T09:03:27.562Z,10.60
2019-03-27T09:04:27.522Z,10.60
2019-03-27T09:05:27.464Z,10.30
2019-03-27T09:06:33.469Z,10.10
2019-03-27T09:07:27.354Z,9.30
2019-03-27T09:08:27.374Z,9.90
2019-03-27T09:09:27.243Z,10.20
2019-03-27T09:10:27.191Z,10.00
2019-03-27T09:11:27.163Z,10.10
2019-03-27T09:12:27.084Z,10.30
2019-03-27T09:13:27.032Z,9.60
2019-03-27T09:14:26.977Z,9.40
2019-03-27T09:15:26.922Z,8.00
2019-03-27T09:16:26.894Z,8.10
2019-03-27T09:17:26.817Z,8.10
2019-03-27T09:18:26.764Z,8.20
2019-03-27T09:19:35.520Z,8.50
2019-03-27T09:20:26.659Z,8.90
2019-03-27T09:21:26.625Z,8.20
2019-03-27T09:22:26.549Z,7.60
2019-03-27T09:23:26.495Z,8.50
2019-03-27T09:24:26.443Z,6.90
2019-03-27T09:25:26.388Z,7.80
2019-03-27T09:26:26.357Z,7.20
2019-03-27T09:27:26.278Z,7.20
2019-03-27T09:28:26.231Z,7.60
2019-03-27T09:29:26.175Z,6.90
2019-03-27T09:30:26.119Z,6.90
2019-03-27T09:31:26.092Z,7.00
2019-03-27T09:32:26.016Z,7.20
2019-03-27T09:33:25.961Z,7.20
2019-03-27T09:34:25.909Z,6.80
2019-03-27T09:35:25.856Z,7.50
2019-03-27T09:36:25.822Z,7.40
2019-03-27T09:37:25.751Z,6.70
2019-03-27T09:38:25.702Z,6.90
2019-03-27T09:39:25.636Z,7.20
2019-03-27T09:40:25.590Z,7.80
2019-03-27T09:41:25.559Z,6.80
2019-03-27T09:42:25.485Z,6.10
2019-03-27T09:43:25.434Z,6.00
2019-03-27T09:44:25.376Z,6.40
2019-03-27T09:45:25.330Z,6.80
2019-03-27T09:46:25.293Z,6.10
2019-03-27T09:47:25.224Z,5.50
2019-03-27T09:48:25.167Z,5.40
2019-03-27T09:49:25.114Z,5.90
2019-03-27T09:50:25.059Z,6.10
2019-03-27T09:51:25.032Z,6.00
2019-03-27T09:52:24.954Z,5.70
2019-03-27T09:53:24.910Z,5.70
2019-03-27T09:54:24.855Z,5.50
2019-03-27T09:55:24.798Z,6.30
2019-03-27T09:56:24.769Z,6.10
2019-03-27T09:57:24.692Z,5.70
2019-03-27T09:58:24.645Z,6.00
2019-03-27T09:59:24.592Z,6.10
2019-03-27T10:00:24.542Z,5.90
2019-03-27T10:01:24.506Z,5.30
2019-03-27T10:02:24.434Z,5.40
2019-03-27T10:03:24.380Z,5.60
2019-03-27T10:04:24.323Z,5.40
2019-03-27T10:05:24.351Z,5.60
2019-03-27T10:06:24.242Z,5.70
2019-03-27T10:07:24.169Z,5.50
2019-03-27T10:08:24.118Z,5.10
2019-03-27T10:09:24.066Z,4.80
2019-03-27T10:10:24.014Z,5.20
2019-03-27T10:11:24.031Z,5.10
2019-03-27T10:12:23.916Z,5.00
2019-03-27T10:13:23.853Z,5.30
2019-03-27T10:14:23.802Z,4.80
2019-03-27T10:15:23.750Z,4.70
2019-03-27T10:16:23.705Z,5.30
2019-03-27T10:17:23.673Z,4.70
2019-03-27T10:18:23.597Z,4.70
2019-03-27T10:19:23.541Z,4.70
2019-03-27T10:20:23.497Z,4.80
2019-03-27T10:21:23.442Z,5.30
2019-03-27T10:22:23.414Z,4.80
2019-03-27T10:23:23.336Z,4.50
2019-03-27T10:24:23.291Z,4.80
2019-03-27T10:25:23.233Z,10.10
2019-03-27T10:26:23.185Z,4.90
2019-03-27T10:27:23.161Z,9.10
2019-03-27T10:28:23.076Z,5.70
2019-03-27T10:29:23.032Z,12.70
2019-03-27T10:30:22.971Z,16.00
2019-03-27T10:31:22.924Z,5.10
2019-03-27T10:32:22.888Z,4.40
2019-03-27T10:33:22.825Z,5.80
2019-03-27T10:34:22.761Z,20.10
2019-03-27T10:35:22.713Z,32.50
2019-03-27T10:36:22.666Z,36.20
2019-03-27T10:37:22.641Z,8.50
2019-03-27T10:38:22.567Z,26.20
2019-03-27T10:39:22.512Z,6.80
2019-03-27T10:40:22.458Z,4.90
2019-03-27T10:41:22.402Z,6.50
2019-03-27T10:42:22.374Z,37.10
2019-03-27T10:43:22.299Z,26.70
2019-03-27T10:44:22.247Z,48.10
2019-03-27T10:45:22.194Z,22.80
2019-03-27T10:46:22.145Z,5.00
2019-03-27T10:47:22.117Z,4.80
2019-03-27T10:48:22.038Z,4.30
2019-03-27T10:49:21.985Z,4.50
2019-03-27T10:50:21.944Z,5.10
2019-03-27T10:51:21.889Z,7.70
2019-03-27T10:52:21.869Z,6.50
2019-03-27T10:53:21.774Z,9.80
2019-03-27T10:54:21.722Z,8.00
2019-03-27T10:55:21.667Z,7.50
2019-03-27T10:56:21.615Z,4.90
2019-03-27T10:57:21.585Z,6.90
2019-03-27T10:58:21.510Z,3.50
2019-03-27T10:59:21.455Z,4.20
2019-03-27T11:00:21.402Z,3.60
2019-03-27T11:01:21.362Z,4.70
2019-03-27T11:02:21.362Z,8.90
2019-03-27T11:03:21.248Z,2.70
2019-03-27T11:04:21.195Z,2.80
2019-03-27T11:05:21.136Z,3.60
2019-03-27T11:06:21.085Z,3.30
2019-03-27T11:07:21.068Z,2.90
2019-03-27T11:08:20.971Z,3.20
2019-03-27T11:09:20.927Z,3.20
2019-03-27T11:10:20.868Z,2.90
2019-03-27T11:11:20.820Z,3.30
2019-03-27T11:12:20.784Z,2.80
2019-03-27T11:13:20.714Z,3.00
2019-03-27T11:14:20.662Z,3.10
2019-03-27T11:15:20.610Z,3.50
2019-03-27T11:16:20.556Z,3.60
2019-03-27T11:17:20.524Z,3.30
2019-03-27T11:18:20.450Z,4.10
2019-03-27T11:19:20.397Z,3.50
2019-03-27T11:20:30.339Z,3.10
2019-03-27T11:21:20.296Z,6.00
2019-03-27T11:22:20.268Z,3.10
2019-03-27T11:23:20.183Z,3.20
2019-03-27T11:24:20.136Z,4.40
2019-03-27T11:25:20.080Z,3.60
2019-03-27T11:26:20.034Z,3.00
2019-03-27T11:27:20.005Z,3.40
2019-03-27T11:28:19.939Z,3.00
2019-03-27T11:29:19.898Z,2.60
2019-03-27T11:30:19.816Z,3.00
2019-03-27T11:31:19.764Z,4.60
2019-03-27T11:32:19.712Z,3.30
2019-03-27T11:33:19.685Z,3.30
2019-03-27T11:34:19.605Z,2.70
2019-03-27T11:35:19.557Z,4.80
2019-03-27T11:36:19.503Z,3.90
2019-03-27T11:37:19.452Z,6.40
2019-03-27T11:38:19.416Z,5.70
2019-03-27T11:39:19.341Z,7.90
2019-03-27T11:40:19.285Z,9.50
2019-03-27T11:41:19.243Z,11.10
2019-03-27T11:42:19.198Z,9.70
2019-03-27T11:43:19.156Z,6.70
2019-03-27T11:44:19.083Z,10.00
2019-03-27T11:45:19.024Z,3.70
2019-03-27T11:46:18.977Z,4.80
2019-03-27T11:47:18.923Z,3.90
2019-03-27T11:48:18.903Z,12.00
2019-03-27T11:49:18.826Z,8.00
2019-03-27T11:50:18.769Z,4.50
2019-03-27T11:51:18.708Z,5.50
2019-03-27T11:52:18.674Z,11.00
2019-03-27T11:53:18.635Z,3.90
2019-03-27T11:54:18.558Z,12.00
2019-03-27T11:55:18.506Z,4.80
2019-03-27T11:56:18.451Z,3.00
2019-03-27T11:57:18.409Z,6.10
2019-03-27T11:58:18.373Z,3.10
2019-03-27T11:59:18.296Z,3.70
2019-03-27T12:00:18.247Z,5.80
2019-03-27T12:01:18.204Z,7.30
2019-03-27T12:02:18.139Z,9.90
2019-03-27T12:03:18.119Z,6.80
2019-03-27T12:04:18.046Z,4.60
2019-03-27T12:05:17.992Z,4.40
2019-03-27T12:06:17.934Z,5.30
2019-03-27T12:07:17.878Z,2.90
2019-03-27T12:08:17.855Z,4.20
2019-03-27T12:09:17.794Z,6.20
2019-03-27T12:10:17.728Z,2.70
2019-03-27T12:11:17.672Z,2.60
2019-03-27T12:12:17.685Z,4.30
2019-03-27T12:13:17.626Z,3.50
2019-03-27T12:14:17.523Z,5.00
2019-03-27T12:15:17.475Z,5.20
2019-03-27T12:16:17.421Z,6.00
2019-03-27T12:17:17.372Z,6.20
2019-03-27T12:18:17.346Z,12.00
2019-03-27T12:19:17.262Z,9.20
2019-03-27T12:20:17.209Z,10.40
2019-03-27T12:21:17.164Z,60.50
2019-03-27T12:22:17.112Z,86.90
2019-03-27T12:23:17.173Z,10.40
2019-03-27T12:24:17.070Z,11.80
2019-03-27T12:25:17.116Z,7.60
2019-03-27T12:26:16.902Z,12.20
2019-03-27T12:27:16.851Z,12.00
2019-03-27T12:28:16.830Z,13.70
2019-03-27T12:29:18.187Z,54.20
2019-03-27T12:30:16.701Z,32.00
2019-03-27T12:31:16.660Z,8.70
2019-03-27T12:32:16.602Z,12.70
2019-03-27T12:33:16.570Z,46.10
2019-03-27T12:34:16.495Z,33.20
2019-03-27T12:35:16.450Z,34.30
2019-03-27T12:36:16.392Z,5.60
2019-03-27T12:37:16.336Z,18.90
2019-03-27T12:38:16.309Z,13.20
2019-03-27T12:39:16.241Z,19.30
2019-03-27T12:40:16.179Z,57.60
2019-03-27T12:41:16.142Z,73.40
2019-03-27T12:42:16.081Z,96.50
2019-03-27T12:43:16.048Z,30.60
2019-03-27T12:44:15.977Z,16.50
2019-03-27T12:45:15.926Z,9.10
2019-03-27T12:46:15.873Z,14.80
2019-03-27T12:47:15.829Z,46.70
2019-03-27T12:48:15.801Z,28.50
2019-03-27T12:49:15.715Z,41.80
2019-03-27T12:50:15.658Z,23.70
2019-03-27T12:51:15.608Z,36.50
2019-03-27T12:52:15.553Z,25.40
2019-03-27T12:53:15.509Z,4.60
2019-03-27T12:54:15.482Z,23.10
2019-03-27T12:55:15.512Z,10.20
2019-03-27T12:56:15.350Z,4.10
2019-03-27T12:57:15.298Z,4.00
2019-03-27T12:58:15.249Z,11.50
2019-03-27T12:59:15.219Z,7.00
2019-03-27T13:00:15.143Z,10.40
2019-03-27T13:01:15.096Z,5.90
2019-03-27T13:02:15.035Z,10.80
2019-03-27T13:03:14.985Z,4.80
2019-03-27T13:04:14.956Z,6.50
2019-03-27T13:05:14.881Z,6.10